Flight Track Log - Related Links

Times and Time Zones

All times are in EDT time to prevent confusion due to time zone crossing. See the OPT498 flight status page for this flight to view local times or setup timezone preferences in your user account.

Time Position Orientation Groundspeed Altitude Reporting Facility
EDT Latitude Longitude Course Direction KTS MPH feet Rate Location/Type
Wed 06:15:58 PM 42.0994 -94.6522 47° Northeast 216 249 4,800  Level Minneapolis Center
Wed 06:17:00 PM 42.1386 -94.5756 55° Northeast 235 270 5,900 919 Climbing Minneapolis Center
Wed 06:18:02 PM 42.1847 -94.4886 54° Northeast 284 327 6,700 432 Climbing Minneapolis Center
Wed 06:19:05 PM 42.2269 -94.4094 54° Northeast 279 321 6,800 192 Climbing Minneapolis Center
Wed 06:20:07 PM 42.2714 -94.3292 53° Northeast 273 314 7,100 774 Climbing Minneapolis Center
Wed 06:21:09 PM 42.3181 -94.2558 49° Northeast 262 302 8,400 1,694 Climbing Minneapolis Center
Wed 06:22:11 PM 42.3881 -94.1750 40° Northeast 273 314 10,600 1,210 Climbing Minneapolis Center
Wed 06:23:13 PM 42.4517 -94.1008 41° Northeast 297 342 10,900 194 Climbing Minneapolis Center
Wed 06:24:15 PM 42.5161 -94.0242 41° Northeast 306 352 11,000 48 Climbing Minneapolis Center
Wed 06:25:18 PM 42.5833 -93.9481 40° Northeast 312 359 11,000  Level Minneapolis Center
Wed 06:26:20 PM 42.6464 -93.8697 42° Northeast 312 359 11,000  Level Minneapolis Center
Wed 06:27:22 PM 42.7269 -93.7828 38° Northeast 310 357 11,000  Level Minneapolis Center
Wed 06:28:24 PM 42.7950 -93.7131 37° Northeast 310 357 11,000  Level Minneapolis Center
Wed 06:29:26 PM 42.8636 -93.6356 40° Northeast 316 364 11,000  Level Minneapolis Center
Wed 06:30:28 PM 42.9311 -93.5544 41° Northeast 320 368 11,000  Level Minneapolis Center
Wed 06:31:31 PM 42.9969 -93.4689 44° Northeast 322 371 11,000  Level Minneapolis Center
Wed 06:32:33 PM 43.0636 -93.3883 41° Northeast 325 374 11,000  Level Minneapolis Center
Wed 06:33:35 PM 43.1483 -93.3019 37° Northeast 322 371 11,000  Level Minneapolis Center
Wed 06:34:37 PM 43.2203 -93.2278 37° Northeast 322 371 11,000  Level Minneapolis Center
Wed 06:35:39 PM 43.2925 -93.1536 37° Northeast 323 372 11,000  Level Minneapolis Center
Wed 06:36:41 PM 43.3619 -93.0811 37° Northeast 322 371 11,000  Level Minneapolis Center
Wed 06:37:44 PM 43.4308 -93.0092 37° Northeast 316 364 11,000 -528 Level Minneapolis Center
Wed 06:38:46 PM 43.5056 -92.9281 38° Northeast 303 349 9,900 -1,065 Descending Minneapolis Center
Wed 06:39:48 PM 43.5733 -92.8569 37° Northeast 288 331 8,800 -1,016 Descending Minneapolis Center
Wed 06:40:50 PM 43.6369 -92.7892 38° Northeast 289 333 7,800 -1,016 Descending Minneapolis Center
Wed 06:41:52 PM 43.7100 -92.7361 28° Northeast 262 302 6,700 -1,210 Descending Minneapolis Center
Wed 06:42:54 PM 43.7750 -92.7103 16° North 248 285 5,300 -1,344 Descending Minneapolis Center
Wed 06:43:57 PM 43.8378 -92.6672 26° Northeast 236 272 3,900 -1,056 Descending Minneapolis Center
Wed 06:44:59 PM 43.8861 -92.6186 36° Northeast 219 252 3,100 -581 Descending Minneapolis Center
Wed 06:46:01 PM 43.9261 -92.5797 35° Northeast 155 178 2,700 -435 Descending Minneapolis Center
Wed 06:47:03 PM 43.9542 -92.5528 35° Northeast 129 148 2,200 -145 Descending Minneapolis Center
Wed 06:48:05 PM 43.9464 -92.5631 224° Southwest 126 145 2,400 -290 Climbing Minneapolis Center
Wed 06:49:07 PM 43.9289 -92.5244 122° Southeast 121 139 1,600 -528 Descending Minneapolis Center
Wed 06:50:10 PM 43.9128 -92.5022 135° Southeast 58 67 1,300 -144 Descending Minneapolis Center
Wed 06:51:12 PM 43.9156 -92.4983 45° Northeast 16 18 1,300  Level Minneapolis Center
Wed 06:52:14 PM 43.9178 -92.4942 53° Northeast 15 17 1,300  Level Minneapolis Center

Login

Don't have an account? Register now (free) for customized features, flight alerts, and more!